sensor_id;sensor_type;location;lat;lon;timestamp;temperature;humidity
29479;DHT22;16437;41.836;23.480;2022-09-01T00:01:36;24.10;52.40
29479;DHT22;16437;41.836;23.480;2022-09-01T00:07:06;24.10;52.40
29479;DHT22;16437;41.836;23.480;2022-09-01T00:12:34;24.10;52.40
29479;DHT22;16437;41.836;23.480;2022-09-01T00:18:01;24.10;52.30
29479;DHT22;16437;41.836;23.480;2022-09-01T00:23:28;24.10;52.30
29479;DHT22;16437;41.836;23.480;2022-09-01T00:28:54;24.10;52.40
29479;DHT22;16437;41.836;23.480;2022-09-01T00:34:21;24.10;52.40
29479;DHT22;16437;41.836;23.480;2022-09-01T00:39:47;24.10;52.40
29479;DHT22;16437;41.836;23.480;2022-09-01T00:45:13;24.10;52.50
29479;DHT22;16437;41.836;23.480;2022-09-01T00:50:41;24.10;52.50
29479;DHT22;16437;41.836;23.480;2022-09-01T00:56:08;24.10;52.50
29479;DHT22;16437;41.836;23.480;2022-09-01T01:01:35;24.10;52.50
29479;DHT22;16437;41.836;23.480;2022-09-01T01:07:01;24.10;52.50
29479;DHT22;16437;41.836;23.480;2022-09-01T01:12:28;24.00;52.50
29479;DHT22;16437;41.836;23.480;2022-09-01T01:17:55;24.10;52.50
29479;DHT22;16437;41.836;23.480;2022-09-01T01:23:36;24.00;52.50
29479;DHT22;16437;41.836;23.480;2022-09-01T01:29:03;24.10;52.50
29479;DHT22;16437;41.836;23.480;2022-09-01T01:34:31;24.00;52.50
29479;DHT22;16437;41.836;23.480;2022-09-01T01:39:58;24.00;52.50
29479;DHT22;16437;41.836;23.480;2022-09-01T01:45:25;24.00;52.40
29479;DHT22;16437;41.836;23.480;2022-09-01T01:50:53;24.00;52.40
29479;DHT22;16437;41.836;23.480;2022-09-01T01:56:20;24.00;52.40
29479;DHT22;16437;41.836;23.480;2022-09-01T02:01:49;23.90;52.40
29479;DHT22;16437;41.836;23.480;2022-09-01T02:07:15;24.00;52.40
29479;DHT22;16437;41.836;23.480;2022-09-01T02:12:42;23.90;52.40
29479;DHT22;16437;41.836;23.480;2022-09-01T02:18:19;23.90;52.40
29479;DHT22;16437;41.836;23.480;2022-09-01T02:23:52;23.90;52.30
29479;DHT22;16437;41.836;23.480;2022-09-01T02:29:26;23.90;52.30
29479;DHT22;16437;41.836;23.480;2022-09-01T02:34:53;24.00;52.20
29479;DHT22;16437;41.836;23.480;2022-09-01T02:40:21;23.90;52.20
29479;DHT22;16437;41.836;23.480;2022-09-01T02:45:50;23.90;52.30
29479;DHT22;16437;41.836;23.480;2022-09-01T02:51:20;24.00;52.30
29479;DHT22;16437;41.836;23.480;2022-09-01T02:56:48;23.90;52.30
29479;DHT22;16437;41.836;23.480;2022-09-01T03:02:15;23.90;52.30
29479;DHT22;16437;41.836;23.480;2022-09-01T03:07:41;23.90;52.30
29479;DHT22;16437;41.836;23.480;2022-09-01T03:13:11;23.90;52.20
29479;DHT22;16437;41.836;23.480;2022-09-01T03:18:38;23.90;52.20
29479;DHT22;16437;41.836;23.480;2022-09-01T03:24:05;23.90;52.10
29479;DHT22;16437;41.836;23.480;2022-09-01T03:29:33;23.90;52.10
29479;DHT22;16437;41.836;23.480;2022-09-01T03:35:00;23.90;52.10
29479;DHT22;16437;41.836;23.480;2022-09-01T03:40:28;23.90;52.10
29479;DHT22;16437;41.836;23.480;2022-09-01T03:45:57;23.90;52.10
29479;DHT22;16437;41.836;23.480;2022-09-01T03:51:28;23.90;52.10
29479;DHT22;16437;41.836;23.480;2022-09-01T03:56:55;23.90;52.10
29479;DHT22;16437;41.836;23.480;2022-09-01T04:02:23;23.80;52.10
29479;DHT22;16437;41.836;23.480;2022-09-01T04:07:50;23.80;52.10
29479;DHT22;16437;41.836;23.480;2022-09-01T04:13:23;23.80;52.00
29479;DHT22;16437;41.836;23.480;2022-09-01T04:18:50;23.80;51.90
29479;DHT22;16437;41.836;23.480;2022-09-01T04:24:17;23.80;51.90
29479;DHT22;16437;41.836;23.480;2022-09-01T04:29:43;23.80;51.90
29479;DHT22;16437;41.836;23.480;2022-09-01T04:35:10;23.80;51.90
29479;DHT22;16437;41.836;23.480;2022-09-01T04:40:39;23.80;51.90
29479;DHT22;16437;41.836;23.480;2022-09-01T04:46:06;23.80;51.90
29479;DHT22;16437;41.836;23.480;2022-09-01T04:51:33;23.70;51.90
29479;DHT22;16437;41.836;23.480;2022-09-01T04:56:59;23.80;51.90
29479;DHT22;16437;41.836;23.480;2022-09-01T05:02:26;23.80;51.90
29479;DHT22;16437;41.836;23.480;2022-09-01T05:07:53;23.80;51.80
29479;DHT22;16437;41.836;23.480;2022-09-01T05:13:20;23.80;51.80
29479;DHT22;16437;41.836;23.480;2022-09-01T05:18:49;23.80;51.80
29479;DHT22;16437;41.836;23.480;2022-09-01T05:24:18;23.70;51.80
29479;DHT22;16437;41.836;23.480;2022-09-01T05:29:46;23.70;51.80
29479;DHT22;16437;41.836;23.480;2022-09-01T05:35:14;23.70;51.80
29479;DHT22;16437;41.836;23.480;2022-09-01T05:40:42;23.80;51.80
29479;DHT22;16437;41.836;23.480;2022-09-01T05:46:09;23.80;51.90
29479;DHT22;16437;41.836;23.480;2022-09-01T05:51:36;23.80;51.70
29479;DHT22;16437;41.836;23.480;2022-09-01T05:57:03;23.80;51.70
29479;DHT22;16437;41.836;23.480;2022-09-01T06:02:31;23.80;51.70
29479;DHT22;16437;41.836;23.480;2022-09-01T06:07:58;23.70;51.70
29479;DHT22;16437;41.836;23.480;2022-09-01T06:13:25;23.70;51.70
29479;DHT22;16437;41.836;23.480;2022-09-01T06:18:52;23.70;51.70
29479;DHT22;16437;41.836;23.480;2022-09-01T06:24:19;23.70;51.90
29479;DHT22;16437;41.836;23.480;2022-09-01T06:29:45;23.70;51.90
29479;DHT22;16437;41.836;23.480;2022-09-01T06:35:15;23.70;52.00
29479;DHT22;16437;41.836;23.480;2022-09-01T06:40:42;23.70;52.00
29479;DHT22;16437;41.836;23.480;2022-09-01T06:46:09;23.80;52.00
29479;DHT22;16437;41.836;23.480;2022-09-01T06:51:36;23.70;52.00
29479;DHT22;16437;41.836;23.480;2022-09-01T06:57:02;23.70;52.00
29479;DHT22;16437;41.836;23.480;2022-09-01T07:02:29;23.80;52.00
29479;DHT22;16437;41.836;23.480;2022-09-01T07:07:56;23.80;52.10
29479;DHT22;16437;41.836;23.480;2022-09-01T07:13:23;23.70;52.10
29479;DHT22;16437;41.836;23.480;2022-09-01T07:18:52;23.80;52.20
29479;DHT22;16437;41.836;23.480;2022-09-01T07:24:21;23.80;52.30
29479;DHT22;16437;41.836;23.480;2022-09-01T07:29:47;23.80;52.30
29479;DHT22;16437;41.836;23.480;2022-09-01T07:35:18;23.80;52.40
29479;DHT22;16437;41.836;23.480;2022-09-01T07:40:47;23.80;52.40
29479;DHT22;16437;41.836;23.480;2022-09-01T07:46:15;23.80;52.50
29479;DHT22;16437;41.836;23.480;2022-09-01T07:51:42;23.80;52.50
29479;DHT22;16437;41.836;23.480;2022-09-01T07:57:10;23.80;52.50
29479;DHT22;16437;41.836;23.480;2022-09-01T08:02:37;23.80;52.60
29479;DHT22;16437;41.836;23.480;2022-09-01T08:08:07;23.80;52.60
29479;DHT22;16437;41.836;23.480;2022-09-01T08:13:35;23.90;52.60
29479;DHT22;16437;41.836;23.480;2022-09-01T08:19:03;23.90;52.70
29479;DHT22;16437;41.836;23.480;2022-09-01T08:24:30;23.90;52.70
29479;DHT22;16437;41.836;23.480;2022-09-01T08:29:56;23.90;52.80
29479;DHT22;16437;41.836;23.480;2022-09-01T08:35:25;23.90;52.80
29479;DHT22;16437;41.836;23.480;2022-09-01T08:40:55;23.90;52.80
29479;DHT22;16437;41.836;23.480;2022-09-01T08:52:43;23.90;52.80
29479;DHT22;16437;41.836;23.480;2022-09-01T08:57:44;23.90;52.80
29479;DHT22;16437;41.836;23.480;2022-09-01T09:08:54;23.90;52.90
29479;DHT22;16437;41.836;23.480;2022-09-01T09:20:01;24.00;53.00
29479;DHT22;16437;41.836;23.480;2022-09-01T09:25:29;24.00;53.00
29479;DHT22;16437;41.836;23.480;2022-09-01T09:36:51;24.00;53.20
29479;DHT22;16437;41.836;23.480;2022-09-01T09:42:17;24.00;53.20
29479;DHT22;16437;41.836;23.480;2022-09-01T09:47:45;24.00;53.30
29479;DHT22;16437;41.836;23.480;2022-09-01T09:58:46;24.10;53.40
29479;DHT22;16437;41.836;23.480;2022-09-01T10:04:14;24.10;53.30
29479;DHT22;16437;41.836;23.480;2022-09-01T10:09:43;24.10;53.30
29479;DHT22;16437;41.836;23.480;2022-09-01T10:15:21;24.10;53.20
29479;DHT22;16437;41.836;23.480;2022-09-01T10:20:40;24.20;53.20
29479;DHT22;16437;41.836;23.480;2022-09-01T10:26:15;24.10;53.20
29479;DHT22;16437;41.836;23.480;2022-09-01T10:31:43;24.20;53.10
29479;DHT22;16437;41.836;23.480;2022-09-01T10:37:10;24.20;53.10
29479;DHT22;16437;41.836;23.480;2022-09-01T10:42:43;24.20;53.20
29479;DHT22;16437;41.836;23.480;2022-09-01T10:48:28;24.30;53.20
29479;DHT22;16437;41.836;23.480;2022-09-01T10:53:57;24.30;53.10
29479;DHT22;16437;41.836;23.480;2022-09-01T10:59:26;24.30;53.10
29479;DHT22;16437;41.836;23.480;2022-09-01T11:10:32;24.30;53.10
29479;DHT22;16437;41.836;23.480;2022-09-01T11:21:45;24.40;53.20
29479;DHT22;16437;41.836;23.480;2022-09-01T11:27:54;24.40;53.20
29479;DHT22;16437;41.836;23.480;2022-09-01T11:32:41;24.40;53.30
29479;DHT22;16437;41.836;23.480;2022-09-01T11:38:08;24.40;53.40
29479;DHT22;16437;41.836;23.480;2022-09-01T11:43:36;24.40;53.50
29479;DHT22;16437;41.836;23.480;2022-09-01T11:49:05;24.50;53.60
29479;DHT22;16437;41.836;23.480;2022-09-01T11:54:40;24.40;53.70
29479;DHT22;16437;41.836;23.480;2022-09-01T12:00:12;24.40;53.80
29479;DHT22;16437;41.836;23.480;2022-09-01T12:05:39;24.40;53.90
29479;DHT22;16437;41.836;23.480;2022-09-01T12:11:27;24.50;53.90
29479;DHT22;16437;41.836;23.480;2022-09-01T12:16:58;24.50;53.90
29479;DHT22;16437;41.836;23.480;2022-09-01T12:22:24;24.60;53.90
29479;DHT22;16437;41.836;23.480;2022-09-01T12:27:51;24.50;53.90
29479;DHT22;16437;41.836;23.480;2022-09-01T12:33:18;24.70;53.80
29479;DHT22;16437;41.836;23.480;2022-09-01T12:38:46;24.70;53.80
29479;DHT22;16437;41.836;23.480;2022-09-01T12:44:33;24.70;53.80
29479;DHT22;16437;41.836;23.480;2022-09-01T12:50:03;24.80;53.70
29479;DHT22;16437;41.836;23.480;2022-09-01T12:55:34;24.80;53.70
29479;DHT22;16437;41.836;23.480;2022-09-01T13:01:03;24.80;53.60
29479;DHT22;16437;41.836;23.480;2022-09-01T13:06:31;24.80;53.70
29479;DHT22;16437;41.836;23.480;2022-09-01T13:12:18;24.70;53.80
29479;DHT22;16437;41.836;23.480;2022-09-01T13:17:45;24.80;53.60
29479;DHT22;16437;41.836;23.480;2022-09-01T13:23:12;24.70;53.70
29479;DHT22;16437;41.836;23.480;2022-09-01T13:28:39;24.70;53.80
29479;DHT22;16437;41.836;23.480;2022-09-01T13:34:05;24.80;53.90
29479;DHT22;16437;41.836;23.480;2022-09-01T13:39:32;24.70;53.90
29479;DHT22;16437;41.836;23.480;2022-09-01T13:44:59;24.80;54.00
29479;DHT22;16437;41.836;23.480;2022-09-01T13:50:25;24.80;54.20
29479;DHT22;16437;41.836;23.480;2022-09-01T13:55:53;24.80;54.30
29479;DHT22;16437;41.836;23.480;2022-09-01T14:01:20;24.90;54.20
29479;DHT22;16437;41.836;23.480;2022-09-01T14:06:47;24.90;54.10
29479;DHT22;16437;41.836;23.480;2022-09-01T14:12:13;24.90;54.10
29479;DHT22;16437;41.836;23.480;2022-09-01T14:17:39;24.80;54.10
29479;DHT22;16437;41.836;23.480;2022-09-01T14:23:07;24.90;54.00
29479;DHT22;16437;41.836;23.480;2022-09-01T14:28:36;24.90;53.90
29479;DHT22;16437;41.836;23.480;2022-09-01T14:34:03;25.00;53.90
29479;DHT22;16437;41.836;23.480;2022-09-01T14:39:31;25.00;53.90
29479;DHT22;16437;41.836;23.480;2022-09-01T14:44:57;25.00;53.80
29479;DHT22;16437;41.836;23.480;2022-09-01T14:50:26;25.00;53.60
29479;DHT22;16437;41.836;23.480;2022-09-01T14:55:54;25.10;53.60
29479;DHT22;16437;41.836;23.480;2022-09-01T15:01:23;25.20;53.50
29479;DHT22;16437;41.836;23.480;2022-09-01T15:06:50;25.20;53.30
29479;DHT22;16437;41.836;23.480;2022-09-01T15:12:16;25.10;53.30
29479;DHT22;16437;41.836;23.480;2022-09-01T15:17:44;25.20;53.20
29479;DHT22;16437;41.836;23.480;2022-09-01T15:23:23;25.20;53.20
29479;DHT22;16437;41.836;23.480;2022-09-01T15:28:50;25.10;53.10
29479;DHT22;16437;41.836;23.480;2022-09-01T15:34:16;25.20;53.10
29479;DHT22;16437;41.836;23.480;2022-09-01T15:39:43;25.20;53.20
29479;DHT22;16437;41.836;23.480;2022-09-01T15:45:13;25.20;53.20
29479;DHT22;16437;41.836;23.480;2022-09-01T15:50:39;25.20;53.20
29479;DHT22;16437;41.836;23.480;2022-09-01T15:56:06;25.10;53.20
29479;DHT22;16437;41.836;23.480;2022-09-01T16:01:36;25.20;53.10
29479;DHT22;16437;41.836;23.480;2022-09-01T16:07:03;25.10;53.10
29479;DHT22;16437;41.836;23.480;2022-09-01T16:12:30;25.10;53.10
29479;DHT22;16437;41.836;23.480;2022-09-01T16:18:07;25.10;53.00
29479;DHT22;16437;41.836;23.480;2022-09-01T16:23:41;25.10;53.00
29479;DHT22;16437;41.836;23.480;2022-09-01T16:29:32;25.10;53.10
29479;DHT22;16437;41.836;23.480;2022-09-01T16:34:56;25.00;53.10
29479;DHT22;16437;41.836;23.480;2022-09-01T16:46:39;25.10;53.20
29479;DHT22;16437;41.836;23.480;2022-09-01T16:52:01;25.10;53.20
29479;DHT22;16437;41.836;23.480;2022-09-01T16:57:47;25.10;53.20
29479;DHT22;16437;41.836;23.480;2022-09-01T17:03:15;25.10;53.20
29479;DHT22;16437;41.836;23.480;2022-09-01T17:14:43;25.10;53.20
29479;DHT22;16437;41.836;23.480;2022-09-01T17:20:11;25.10;53.20
29479;DHT22;16437;41.836;23.480;2022-09-01T17:31:30;24.90;53.20
29479;DHT22;16437;41.836;23.480;2022-09-01T17:48:37;24.90;53.30
29479;DHT22;16437;41.836;23.480;2022-09-01T17:54:17;25.00;53.40
29479;DHT22;16437;41.836;23.480;2022-09-01T18:05:33;25.00;53.50
29479;DHT22;16437;41.836;23.480;2022-09-01T18:11:01;25.00;53.60
29479;DHT22;16437;41.836;23.480;2022-09-01T18:16:31;24.90;53.60
29479;DHT22;16437;41.836;23.480;2022-09-01T18:22:00;25.00;53.60
29479;DHT22;16437;41.836;23.480;2022-09-01T18:27:27;24.90;53.60
29479;DHT22;16437;41.836;23.480;2022-09-01T18:32:57;24.90;53.60
29479;DHT22;16437;41.836;23.480;2022-09-01T18:50:24;24.90;53.70
29479;DHT22;16437;41.836;23.480;2022-09-01T19:01:46;24.90;53.70
29479;DHT22;16437;41.836;23.480;2022-09-01T19:12:59;24.90;53.50
29479;DHT22;16437;41.836;23.480;2022-09-01T19:18:42;24.90;53.50
29479;DHT22;16437;41.836;23.480;2022-09-01T19:30:00;24.80;53.50
29479;DHT22;16437;41.836;23.480;2022-09-01T19:35:27;24.80;53.40
29479;DHT22;16437;41.836;23.480;2022-09-01T19:41:03;24.70;53.50
29479;DHT22;16437;41.836;23.480;2022-09-01T19:46:36;24.70;53.50
29479;DHT22;16437;41.836;23.480;2022-09-01T19:52:07;24.70;53.50
29479;DHT22;16437;41.836;23.480;2022-09-01T19:57:41;24.70;53.50
29479;DHT22;16437;41.836;23.480;2022-09-01T20:03:17;24.70;53.50
29479;DHT22;16437;41.836;23.480;2022-09-01T20:08:53;24.80;53.40
29479;DHT22;16437;41.836;23.480;2022-09-01T20:20:13;24.70;53.30
29479;DHT22;16437;41.836;23.480;2022-09-01T20:25:45;24.80;53.30
29479;DHT22;16437;41.836;23.480;2022-09-01T20:31:37;24.70;53.20
29479;DHT22;16437;41.836;23.480;2022-09-01T20:43:06;24.70;53.20
29479;DHT22;16437;41.836;23.480;2022-09-01T20:48:38;24.70;53.20
29479;DHT22;16437;41.836;23.480;2022-09-01T20:54:23;24.70;53.20
29479;DHT22;16437;41.836;23.480;2022-09-01T20:59:56;24.70;53.20
29479;DHT22;16437;41.836;23.480;2022-09-01T21:17:07;24.60;53.20
29479;DHT22;16437;41.836;23.480;2022-09-01T21:22:32;24.70;53.20
29479;DHT22;16437;41.836;23.480;2022-09-01T21:28:01;24.60;53.20
29479;DHT22;16437;41.836;23.480;2022-09-01T21:33:30;24.60;53.20
29479;DHT22;16437;41.836;23.480;2022-09-01T21:38:57;24.60;53.20
29479;DHT22;16437;41.836;23.480;2022-09-01T21:44:24;24.50;53.20
29479;DHT22;16437;41.836;23.480;2022-09-01T21:49:50;24.50;53.10
29479;DHT22;16437;41.836;23.480;2022-09-01T21:55:17;24.50;53.00
29479;DHT22;16437;41.836;23.480;2022-09-01T22:00:44;24.50;53.00
29479;DHT22;16437;41.836;23.480;2022-09-01T22:06:12;24.50;52.90
29479;DHT22;16437;41.836;23.480;2022-09-01T22:11:39;24.50;52.90
29479;DHT22;16437;41.836;23.480;2022-09-01T22:17:06;24.50;52.90
29479;DHT22;16437;41.836;23.480;2022-09-01T22:22:36;24.50;52.90
29479;DHT22;16437;41.836;23.480;2022-09-01T22:28:04;24.50;52.90
29479;DHT22;16437;41.836;23.480;2022-09-01T22:33:32;24.50;52.90
29479;DHT22;16437;41.836;23.480;2022-09-01T22:38:59;24.50;52.90
29479;DHT22;16437;41.836;23.480;2022-09-01T22:44:25;24.50;52.90
29479;DHT22;16437;41.836;23.480;2022-09-01T22:49:54;24.50;52.90
29479;DHT22;16437;41.836;23.480;2022-09-01T22:55:20;24.50;52.90
29479;DHT22;16437;41.836;23.480;2022-09-01T23:00:50;24.50;52.90
29479;DHT22;16437;41.836;23.480;2022-09-01T23:06:19;24.50;52.90
29479;DHT22;16437;41.836;23.480;2022-09-01T23:11:46;24.40;53.00
29479;DHT22;16437;41.836;23.480;2022-09-01T23:17:13;24.40;53.00
29479;DHT22;16437;41.836;23.480;2022-09-01T23:22:41;24.40;53.00
29479;DHT22;16437;41.836;23.480;2022-09-01T23:28:10;24.30;53.00
29479;DHT22;16437;41.836;23.480;2022-09-01T23:33:38;24.40;53.00
29479;DHT22;16437;41.836;23.480;2022-09-01T23:39:06;24.40;53.00
29479;DHT22;16437;41.836;23.480;2022-09-01T23:44:32;24.30;53.00
29479;DHT22;16437;41.836;23.480;2022-09-01T23:49:59;24.30;53.00
29479;DHT22;16437;41.836;23.480;2022-09-01T23:55:27;24.30;53.00
